Time;durP1;ratioP1;P1;durP2;ratioP2;P2;SDS_P1;SDS_P2;PMS_P1;PMS_P2;Temp;Humidity;BMP_temperature;BMP_pressure;BME280_temperature;BME280_humidity;BME280_pressure;Samples;Min_cycle;Max_cycle;Signal;HPM_P1;HPM_P2
2022/09/05 00:02:02;;;;;;;4.45;3.10;;;21.00;51.30;;;;;;5010989;28;20069;-66
2022/09/05 00:04:46;;;;;;;4.20;3.10;;;20.90;51.60;;;;;;4984395;28;20486;-65
2022/09/05 00:07:24;;;;;;;3.10;2.60;;;20.90;51.80;;;;;;5008194;28;20050;-65
2022/09/05 00:10:03;;;;;;;3.90;2.20;;;20.80;51.70;;;;;;5009065;28;20163;-65
2022/09/05 00:12:31;;;;;;;3.67;2.72;;;20.80;51.60;;;;;;4993267;28;20121;-65
2022/09/05 00:15:22;;;;;;;3.50;2.80;;;20.80;51.60;;;;;;4980248;28;20490;-65
2022/09/05 00:18:03;;;;;;;4.93;2.83;;;20.80;51.60;;;;;;4990587;28;20051;-65
2022/09/05 00:20:37;;;;;;;3.75;2.65;;;20.80;51.80;;;;;;4978164;28;20038;-65
2022/09/05 00:23:21;;;;;;;3.53;2.70;;;20.80;51.80;;;;;;4976392;28;20078;-65
2022/09/05 00:26:17;;;;;;;3.92;2.80;;;20.70;51.80;;;;;;4994694;28;20482;-66
2022/09/05 00:29:17;;;;;;;4.93;3.60;;;20.80;51.90;;;;;;4990004;28;20058;-66
2022/09/05 00:31:55;;;;;;;5.03;3.28;;;20.70;52.00;;;;;;4979264;28;20101;-66
2022/09/05 00:34:53;;;;;;;4.05;3.10;;;20.70;52.20;;;;;;4989933;28;20034;-66
2022/09/05 00:37:44;;;;;;;4.35;3.28;;;20.60;52.30;;;;;;4953410;28;20058;-66
2022/09/05 00:40:19;;;;;;;5.15;3.83;;;20.50;52.30;;;;;;4976203;28;20094;-66
2022/09/05 00:42:48;;;;;;;4.40;3.55;;;20.40;52.50;;;;;;4991811;28;20046;-66
2022/09/05 00:45:27;;;;;;;4.97;3.70;;;20.40;52.60;;;;;;4990781;28;20371;-66
2022/09/05 00:48:18;;;;;;;6.38;3.60;;;20.30;52.60;;;;;;4980630;28;20479;-66
2022/09/05 00:51:01;;;;;;;6.00;4.20;;;20.30;52.80;;;;;;4975810;28;20482;-66
2022/09/05 00:53:52;;;;;;;4.60;3.30;;;20.20;52.90;;;;;;4979393;28;20402;-66
2022/09/05 00:56:35;;;;;;;5.68;3.83;;;20.10;53.30;;;;;;4993665;28;20060;-66
2022/09/05 00:59:23;;;;;;;4.25;3.70;;;20.00;53.20;;;;;;4981859;28;20042;-66
2022/09/05 01:01:57;;;;;;;4.93;3.40;;;19.90;53.40;;;;;;4987291;28;20046;-66
2022/09/05 01:04:52;;;;;;;4.10;3.65;;;19.90;53.60;;;;;;4993238;28;20540;-66
2022/09/05 01:07:55;;;;;;;3.85;3.45;;;19.80;53.60;;;;;;5006807;28;20062;-66
2022/09/05 01:10:53;;;;;;;5.00;3.83;;;19.70;53.70;;;;;;4974353;28;20049;-66
2022/09/05 01:13:34;;;;;;;4.85;3.78;;;19.70;53.90;;;;;;4977550;28;20076;-66
2022/09/05 01:16:06;;;;;;;5.15;4.07;;;19.60;54.30;;;;;;4975892;28;20042;-66
2022/09/05 01:19:09;;;;;;;4.97;3.80;;;19.60;54.10;;;;;;4984332;28;20069;-66
2022/09/05 01:22:04;;;;;;;4.75;3.88;;;19.60;54.20;;;;;;4981483;28;20617;-66
2022/09/05 01:24:52;;;;;;;5.68;4.15;;;19.50;54.20;;;;;;4981632;28;20613;-66
2022/09/05 01:27:48;;;;;;;7.07;4.43;;;19.50;54.40;;;;;;4988537;28;20045;-66
2022/09/05 01:30:22;;;;;;;5.55;4.50;;;19.40;54.50;;;;;;4993498;28;20053;-66
2022/09/05 01:32:53;;;;;;;5.28;4.30;;;19.30;54.70;;;;;;4990601;28;20520;-66
2022/09/05 01:35:36;;;;;;;5.03;4.53;;;19.20;54.70;;;;;;4987035;28;20093;-66
2022/09/05 01:38:12;;;;;;;4.22;3.40;;;19.20;54.80;;;;;;4991700;28;20094;-66
2022/09/05 01:41:05;;;;;;;3.83;3.17;;;19.20;54.80;;;;;;4991098;28;20060;-66
2022/09/05 01:43:52;;;;;;;5.18;3.00;;;19.20;54.60;;;;;;4974216;28;20050;-66
2022/09/05 01:46:21;;;;;;;4.20;3.05;;;19.20;54.40;;;;;;5008374;28;20049;-66
2022/09/05 01:49:06;;;;;;;3.65;3.00;;;19.20;54.30;;;;;;4983180;28;20049;-66
2022/09/05 01:51:50;;;;;;;3.63;3.17;;;19.30;54.30;;;;;;4990377;28;20042;-67
2022/09/05 01:54:30;;;;;;;5.35;3.22;;;19.20;54.20;;;;;;4993118;28;20070;-67
2022/09/05 01:57:09;;;;;;;4.38;3.25;;;19.30;54.10;;;;;;4989873;28;20042;-66
2022/09/05 01:59:57;;;;;;;4.13;3.20;;;19.30;54.00;;;;;;4977233;28;20041;-66
2022/09/05 02:02:37;;;;;;;4.07;2.92;;;19.30;53.90;;;;;;4990289;28;20061;-67
2022/09/05 02:05:12;;;;;;;3.50;2.60;;;19.30;53.90;;;;;;5006171;28;20050;-67
2022/09/05 02:08:15;;;;;;;3.55;3.25;;;19.40;53.90;;;;;;4978171;28;20046;-67
2022/09/05 02:11:06;;;;;;;4.40;3.45;;;19.40;53.70;;;;;;4973856;28;20046;-67
2022/09/05 02:13:35;;;;;;;3.45;3.00;;;19.40;53.60;;;;;;4990899;28;20105;-66
2022/09/05 02:16:28;;;;;;;3.70;2.80;;;19.40;53.70;;;;;;4987932;28;20039;-65
2022/09/05 02:19:13;;;;;;;3.72;3.00;;;19.40;53.70;;;;;;5008394;28;20084;-65
2022/09/05 02:21:49;;;;;;;3.47;3.17;;;19.40;53.60;;;;;;4990688;28;20048;-65
2022/09/05 02:24:33;;;;;;;4.25;2.88;;;19.40;53.60;;;;;;4983098;28;20050;-65
2022/09/05 02:27:25;;;;;;;;;;;19.40;53.60;;;;;;4976926;28;20054;-65
2022/09/05 02:30:26;;;;;;;4.82;3.17;;;19.40;53.30;;;;;;4974099;28;19925;-65
2022/09/05 02:33:10;;;;;;;5.28;3.38;;;19.40;53.50;;;;;;4932971;29;20445;-65
2022/09/05 02:35:44;;;;;;;6.18;3.08;;;19.40;53.40;;;;;;4973787;28;20494;-65
2022/09/05 02:38:28;;;;;;;6.90;3.60;;;19.40;53.50;;;;;;4986934;28;20042;-66
2022/09/05 02:40:56;;;;;;;3.55;2.85;;;19.40;53.60;;;;;;4974141;28;20062;-66
2022/09/05 02:43:35;;;;;;;4.00;2.85;;;19.40;53.50;;;;;;4974102;28;20631;-66
2022/09/05 02:46:15;;;;;;;3.95;3.10;;;19.40;53.30;;;;;;4992373;28;20112;-66
2022/09/05 02:49:03;;;;;;;3.50;3.20;;;19.40;53.40;;;;;;4976920;28;20043;-66
2022/09/05 02:51:49;;;;;;;5.55;4.28;;;19.40;53.40;;;;;;4973092;28;20055;-66
2022/09/05 02:54:21;;;;;;;3.53;2.92;;;19.40;53.40;;;;;;4986088;28;20043;-66
2022/09/05 02:57:02;;;;;;;3.58;2.90;;;19.30;53.30;;;;;;4984725;28;20042;-66
2022/09/05 02:59:27;;;;;;;3.85;3.20;;;19.30;53.30;;;;;;4988787;28;20043;-66
2022/09/05 03:02:15;;;;;;;4.22;3.05;;;19.30;53.30;;;;;;4986733;28;20188;-66
2022/09/05 03:04:51;;;;;;;3.33;2.88;;;19.30;53.20;;;;;;4965977;28;20097;-66
2022/09/05 03:07:40;;;;;;;4.18;3.38;;;19.20;53.20;;;;;;4976422;28;20496;-66
2022/09/05 03:10:24;;;;;;;3.50;3.20;;;19.20;53.30;;;;;;4958079;28;20051;-66
2022/09/05 03:13:15;;;;;;;3.95;3.55;;;19.20;53.50;;;;;;5009295;28;20074;-66
2022/09/05 03:15:58;;;;;;;4.43;3.22;;;19.20;53.60;;;;;;5008633;28;20046;-66
2022/09/05 03:18:45;;;;;;;4.63;3.67;;;19.20;53.70;;;;;;4977252;28;20120;-66
2022/09/05 03:21:33;;;;;;;4.30;3.58;;;19.10;53.60;;;;;;4984653;28;20046;-66
2022/09/05 03:24:16;;;;;;;5.47;4.38;;;19.10;53.60;;;;;;4979705;28;20065;-66
2022/09/05 03:27:08;;;;;;;5.80;5.22;;;19.10;53.80;;;;;;4981308;28;20042;-66
2022/09/05 03:29:43;;;;;;;5.75;4.35;;;19.10;54.00;;;;;;4975991;28;20077;-66
2022/09/05 03:32:27;;;;;;;4.45;3.50;;;19.10;53.90;;;;;;4994456;28;20073;-66
2022/09/05 03:35:08;;;;;;;4.45;3.85;;;19.00;53.80;;;;;;4984908;28;20039;-67
2022/09/05 03:37:53;;;;;;;4.82;3.80;;;19.00;53.80;;;;;;4986561;28;20046;-67
2022/09/05 03:40:46;;;;;;;5.97;5.13;;;19.00;53.80;;;;;;4991677;28;20128;-67
2022/09/05 03:43:47;;;;;;;6.75;5.68;;;19.00;54.10;;;;;;4995531;28;20085;-67
2022/09/05 03:46:37;;;;;;;6.10;5.45;;;18.90;54.40;;;;;;4988255;28;20384;-67
2022/09/05 03:49:21;;;;;;;6.07;5.47;;;18.90;54.70;;;;;;4983498;28;20047;-67
2022/09/05 03:52:10;;;;;;;6.28;5.63;;;18.70;54.80;;;;;;4992195;28;20137;-67
2022/09/05 03:55:08;;;;;;;6.93;5.45;;;18.70;55.10;;;;;;4985020;28;20482;-67
2022/09/05 03:58:02;;;;;;;7.60;5.07;;;18.60;55.20;;;;;;4963561;28;20072;-67
2022/09/05 04:00:32;;;;;;;6.13;4.13;;;18.50;55.40;;;;;;4980256;28;20050;-67
2022/09/05 04:03:04;;;;;;;5.65;4.40;;;18.50;55.20;;;;;;4975676;28;20137;-67
2022/09/05 04:05:39;;;;;;;7.72;5.82;;;18.50;55.20;;;;;;4994476;28;20046;-67
2022/09/05 04:08:25;;;;;;;7.72;5.50;;;18.50;55.60;;;;;;5003475;28;20049;-67
2022/09/05 04:11:04;;;;;;;4.90;4.40;;;18.50;55.70;;;;;;4960698;28;20075;-67
2022/09/05 04:13:54;;;;;;;6.40;4.88;;;18.50;56.00;;;;;;4992203;28;20046;-67
2022/09/05 04:16:25;;;;;;;6.68;5.97;;;18.50;55.60;;;;;;4976749;28;20117;-67
2022/09/05 04:19:09;;;;;;;5.20;4.47;;;18.40;55.90;;;;;;4991409;28;20070;-67
2022/09/05 04:21:43;;;;;;;4.35;3.70;;;18.40;55.60;;;;;;4983265;28;20133;-67
2022/09/05 04:24:32;;;;;;;4.30;3.53;;;18.40;55.60;;;;;;4980565;28;20510;-67
2022/09/05 04:27:19;;;;;;;6.78;6.18;;;18.40;55.30;;;;;;4989683;28;20043;-67
2022/09/05 04:30:05;;;;;;;6.93;6.25;;;18.40;55.80;;;;;;4975033;28;20125;-67
2022/09/05 04:32:37;;;;;;;5.22;4.72;;;18.30;56.00;;;;;;4973952;28;20061;-69
2022/09/05 04:35:18;;;;;;;5.75;5.07;;;18.30;56.00;;;;;;4981952;28;20046;-68
2022/09/05 04:38:06;;;;;;;5.20;4.70;;;18.30;56.00;;;;;;4982780;28;20491;-69
2022/09/05 04:40:38;;;;;;;5.70;5.10;;;18.30;55.90;;;;;;4973859;28;20109;-68
2022/09/05 04:43:40;;;;;;;9.50;6.00;;;18.30;56.00;;;;;;4991064;28;20078;-68
2022/09/05 04:46:09;;;;;;;7.40;6.60;;;18.30;56.10;;;;;;4982454;28;20098;-68
2022/09/05 04:48:42;;;;;;;10.65;7.25;;;18.30;56.50;;;;;;4990442;28;20042;-67
2022/09/05 04:51:34;;;;;;;7.22;6.53;;;18.30;56.50;;;;;;4992735;28;20144;-67
2022/09/05 04:54:08;;;;;;;8.50;7.22;;;18.10;56.60;;;;;;4985207;28;20053;-67
2022/09/05 04:56:40;;;;;;;7.65;6.95;;;18.00;56.90;;;;;;4978467;28;20053;-67
2022/09/05 04:59:20;;;;;;;7.57;6.85;;;17.90;57.20;;;;;;4990347;28;20476;-67
2022/09/05 05:01:52;;;;;;;9.02;7.22;;;17.80;57.50;;;;;;4988896;28;20049;-67
2022/09/05 05:04:22;;;;;;;8.38;7.38;;;17.70;57.80;;;;;;4986905;28;20442;-67
2022/09/05 05:07:06;;;;;;;8.88;7.70;;;17.60;58.10;;;;;;4982706;28;20509;-67
2022/09/05 05:09:44;;;;;;;8.88;8.18;;;17.50;58.30;;;;;;4974500;28;20074;-66
2022/09/05 05:12:23;;;;;;;9.98;7.97;;;17.40;58.60;;;;;;4974708;28;20507;-67
2022/09/05 05:14:52;;;;;;;9.00;8.20;;;17.40;58.80;;;;;;4991499;28;20097;-67
2022/09/05 05:17:39;;;;;;;8.57;7.78;;;17.30;59.00;;;;;;4993433;28;20053;-67
2022/09/05 05:20:22;;;;;;;9.32;7.78;;;17.20;59.20;;;;;;4994072;28;20447;-66
2022/09/05 05:23:02;;;;;;;10.35;7.95;;;17.10;59.40;;;;;;4990475;28;20601;-67
2022/09/05 05:25:32;;;;;;;9.43;7.93;;;17.10;59.60;;;;;;4986243;28;20042;-67
2022/09/05 05:28:15;;;;;;;8.63;7.60;;;17.00;59.60;;;;;;4979168;28;20054;-66
2022/09/05 05:30:42;;;;;;;8.52;7.65;;;17.00;59.90;;;;;;4983682;28;20070;-67
2022/09/05 05:33:26;;;;;;;8.48;7.57;;;17.00;59.80;;;;;;4975800;28;20050;-67
2022/09/05 05:35:54;;;;;;;9.75;7.55;;;17.00;60.10;;;;;;4989751;28;20074;-67
2022/09/05 05:38:41;;;;;;;8.63;7.82;;;17.00;60.10;;;;;;4992974;28;20046;-67
2022/09/05 05:41:19;;;;;;;8.43;7.53;;;17.00;60.30;;;;;;4991832;28;20073;-67
2022/09/05 05:43:47;;;;;;;8.20;7.50;;;17.00;60.30;;;;;;4977697;28;20046;-66
2022/09/05 05:46:25;;;;;;;9.65;7.68;;;17.00;60.30;;;;;;4990811;28;20046;-66
2022/09/05 05:48:53;;;;;;;9.05;7.93;;;17.00;60.40;;;;;;4993280;28;20050;-66
2022/09/05 05:51:25;;;;;;;8.98;7.68;;;17.00;60.50;;;;;;4991571;28;20048;-66
2022/09/05 05:54:06;;;;;;;11.00;7.68;;;17.00;60.60;;;;;;4990606;28;20050;-65
2022/09/05 05:56:54;;;;;;;10.40;7.75;;;17.00;60.80;;;;;;4968607;28;20046;-65
2022/09/05 05:59:52;;;;;;;8.98;8.00;;;17.00;60.90;;;;;;4977335;28;20422;-64
2022/09/05 06:02:38;;;;;;;10.75;8.32;;;17.00;60.90;;;;;;5005897;28;20046;-64
2022/09/05 06:05:36;;;;;;;9.77;8.77;;;17.00;61.10;;;;;;4978807;28;20534;-64
2022/09/05 06:08:34;;;;;;;10.70;8.13;;;17.00;61.10;;;;;;4976047;28;20066;-64
2022/09/05 06:11:21;;;;;;;8.43;7.70;;;17.10;61.30;;;;;;4992302;28;20050;-65
2022/09/05 06:14:26;;;;;;;8.77;7.95;;;17.20;61.40;;;;;;4974582;28;20042;-65
2022/09/05 06:17:30;;;;;;;10.70;8.50;;;17.30;61.20;;;;;;4985291;28;20045;-64
2022/09/05 06:20:15;;;;;;;7.75;6.93;;;17.50;61.00;;;;;;4972347;28;20134;-65
2022/09/05 06:22:55;;;;;;;;;;;17.70;60.90;;;;;;5006214;28;20061;-64
2022/09/05 06:26:12;;;;;;;9.40;7.13;;;17.80;60.20;;;;;;4991969;28;20373;-65
2022/09/05 06:28:41;;;;;;;8.10;6.95;;;18.00;60.30;;;;;;4951778;28;20058;-65
2022/09/05 06:31:36;;;;;;;13.55;7.57;;;18.20;60.10;;;;;;4975390;28;20537;-65
2022/09/05 06:34:32;;;;;;;16.38;7.25;;;18.50;59.60;;;;;;4987052;28;20050;-65
2022/09/05 06:37:24;;;;;;;16.88;8.65;;;18.70;59.20;;;;;;4994151;28;20418;-65
2022/09/05 06:40:04;;;;;;;12.23;6.68;;;18.90;59.00;;;;;;5002074;28;20046;-66
2022/09/05 06:43:24;;;;;;;13.00;6.80;;;19.20;58.50;;;;;;4988058;28;20518;-65
2022/09/05 06:46:33;;;;;;;7.72;6.93;;;19.40;58.10;;;;;;4922367;29;20134;-65
2022/09/05 06:49:13;;;;;;;7.85;6.55;;;19.50;57.80;;;;;;4898673;29;20053;-65
2022/09/05 06:51:53;;;;;;;8.50;6.72;;;19.70;57.60;;;;;;4898688;29;20054;-65
2022/09/05 06:54:33;;;;;;;10.25;6.38;;;19.80;57.00;;;;;;4957609;28;20054;-65
2022/09/05 06:57:36;;;;;;;6.85;5.43;;;20.00;56.90;;;;;;4989105;28;20042;-66
2022/09/05 07:00:44;;;;;;;9.02;6.32;;;20.20;56.60;;;;;;5001006;28;20127;-66
2022/09/05 07:03:29;;;;;;;9.48;6.40;;;20.40;56.10;;;;;;4983977;28;20046;-66
2022/09/05 07:06:06;;;;;;;;;;;20.70;55.80;;;;;;4997491;28;20092;-66
2022/09/05 07:08:35;;;;;;;8.05;6.13;;;20.80;55.80;;;;;;4975079;28;19918;-66
2022/09/05 07:11:39;;;;;;;9.50;6.38;;;20.90;55.50;;;;;;4987859;28;20128;-66
2022/09/05 07:14:22;;;;;;;12.70;5.88;;;21.10;55.00;;;;;;5006697;28;20038;-66
2022/09/05 07:17:04;;;;;;;8.90;7.60;;;21.20;55.00;;;;;;4985331;28;20124;-66
2022/09/05 07:19:34;;;;;;;7.28;6.57;;;21.40;54.30;;;;;;4977968;28;20110;-66
2022/09/05 07:22:31;;;;;;;8.63;6.50;;;21.50;54.30;;;;;;4995752;28;20050;-66
2022/09/05 07:25:02;;;;;;;7.22;6.13;;;21.60;54.20;;;;;;4961113;28;20090;-66
2022/09/05 07:27:52;;;;;;;7.03;6.43;;;21.60;54.10;;;;;;4995806;28;20108;-66
2022/09/05 07:30:18;;;;;;;8.80;6.35;;;21.80;54.30;;;;;;4993763;28;20054;-66
2022/09/05 07:32:55;;;;;;;7.15;6.40;;;21.90;54.30;;;;;;5001431;28;20046;-66
2022/09/05 07:35:29;;;;;;;8.15;7.18;;;21.90;53.90;;;;;;5002489;28;20038;-66
2022/09/05 07:37:59;;;;;;;7.30;6.55;;;22.00;53.70;;;;;;4995948;28;20109;-66
2022/09/05 07:40:26;;;;;;;7.80;7.05;;;22.10;53.50;;;;;;5003367;28;20084;-66
2022/09/05 07:42:58;;;;;;;6.82;6.13;;;22.20;53.50;;;;;;5002702;28;20474;-66
2022/09/05 07:45:27;;;;;;;7.57;6.88;;;22.20;53.90;;;;;;5000001;28;20069;-66
2022/09/05 07:47:57;;;;;;;7.15;6.00;;;22.30;53.60;;;;;;5006590;28;20573;-66
2022/09/05 07:50:24;;;;;;;7.13;6.43;;;22.40;53.50;;;;;;4992129;28;20633;-66
2022/09/05 07:52:53;;;;;;;7.20;6.50;;;22.50;53.70;;;;;;5000851;28;20053;-66
2022/09/05 07:55:34;;;;;;;8.40;6.97;;;22.70;53.70;;;;;;5003300;28;20169;-66
2022/09/05 07:58:05;;;;;;;9.43;7.30;;;22.80;53.20;;;;;;5002451;28;20104;-66
2022/09/05 08:00:31;;;;;;;8.30;7.60;;;22.80;53.20;;;;;;4980047;28;20366;-66
2022/09/05 08:03:02;;;;;;;7.10;6.40;;;23.00;53.20;;;;;;4998781;28;20042;-68
2022/09/05 08:05:38;;;;;;;7.35;5.78;;;23.00;52.80;;;;;;4985324;28;20516;-68
2022/09/05 08:08:08;;;;;;;8.18;5.90;;;23.10;53.00;;;;;;4999549;28;20045;-68
2022/09/05 08:10:42;;;;;;;7.07;6.38;;;23.20;52.70;;;;;;5010316;28;20406;-68
2022/09/05 08:13:12;;;;;;;8.02;6.82;;;23.30;52.40;;;;;;4995867;28;20069;-69
2022/09/05 08:15:44;;;;;;;6.93;6.15;;;23.50;52.30;;;;;;5004017;28;20038;-68
2022/09/05 08:18:36;;;;;;;8.45;5.82;;;23.60;52.30;;;;;;5009657;28;20538;-68
2022/09/05 08:21:06;;;;;;;6.70;6.00;;;23.70;51.70;;;;;;5006189;28;20050;-68
2022/09/05 08:23:50;;;;;;;9.80;5.95;;;23.70;51.90;;;;;;4999915;28;20046;-68
2022/09/05 08:26:38;;;;;;;6.88;5.78;;;23.80;51.60;;;;;;5011040;28;20061;-68
2022/09/05 08:29:19;;;;;;;7.82;6.32;;;23.90;51.70;;;;;;4990794;28;20038;-68
2022/09/05 08:31:51;;;;;;;7.85;6.10;;;24.00;51.60;;;;;;5002994;28;20409;-68
2022/09/05 08:34:23;;;;;;;6.13;5.27;;;24.10;51.30;;;;;;4990443;28;20438;-68
2022/09/05 08:36:50;;;;;;;6.10;5.13;;;24.20;51.10;;;;;;5007578;28;20034;-68
2022/09/05 08:39:23;;;;;;;7.30;5.32;;;24.40;51.10;;;;;;5004658;28;20092;-68
2022/09/05 08:42:01;;;;;;;6.60;5.40;;;24.50;50.60;;;;;;4999340;28;20145;-69
2022/09/05 08:44:59;;;;;;;6.72;5.43;;;24.70;50.40;;;;;;4985446;28;20046;-68
2022/09/05 08:47:43;;;;;;;6.90;4.80;;;24.90;49.90;;;;;;5005132;28;20123;-69
2022/09/05 08:50:35;;;;;;;6.97;4.25;;;25.10;49.90;;;;;;4997790;28;20042;-69
2022/09/05 08:53:23;;;;;;;6.53;4.35;;;25.20;49.30;;;;;;4976837;28;20461;-69
2022/09/05 08:55:54;;;;;;;7.35;4.70;;;25.40;48.90;;;;;;4988839;28;20042;-69
2022/09/05 08:58:42;;;;;;;6.10;4.65;;;25.50;48.70;;;;;;4996986;28;20038;-69
2022/09/05 09:01:18;;;;;;;4.70;4.15;;;25.70;48.50;;;;;;5004875;28;20038;-69
2022/09/05 09:04:18;;;;;;;6.03;5.00;;;25.80;48.30;;;;;;5004113;28;20046;-68
2022/09/05 09:07:13;;;;;;;4.65;4.22;;;26.00;47.80;;;;;;4985423;28;20034;-68
2022/09/05 09:09:44;;;;;;;6.20;5.60;;;26.10;47.40;;;;;;5000746;28;20038;-68
2022/09/05 09:12:13;;;;;;;4.40;3.90;;;26.20;47.20;;;;;;4997155;28;20093;-68
2022/09/05 09:14:45;;;;;;;6.03;5.28;;;26.30;47.30;;;;;;5005581;28;20113;-69
2022/09/05 09:17:44;;;;;;;6.03;4.85;;;26.50;46.90;;;;;;5003932;28;20097;-68
2022/09/05 09:20:24;;;;;;;5.90;4.10;;;26.60;47.00;;;;;;5009805;28;20497;-68
2022/09/05 09:22:58;;;;;;;5.15;4.57;;;26.70;47.20;;;;;;4999769;28;20149;-68
2022/09/05 09:25:42;;;;;;;4.90;4.15;;;26.80;46.60;;;;;;4991554;28;20034;-69
2022/09/05 09:28:41;;;;;;;8.65;4.10;;;26.90;46.40;;;;;;5007427;28;20371;-69
2022/09/05 09:31:29;;;;;;;5.80;4.53;;;27.00;46.60;;;;;;5002257;28;20077;-68
2022/09/05 09:34:13;;;;;;;8.02;4.70;;;27.10;46.10;;;;;;5000722;28;20425;-68
2022/09/05 09:36:48;;;;;;;6.88;4.20;;;27.20;45.90;;;;;;4990192;28;20034;-69
2022/09/05 09:39:19;;;;;;;5.72;4.88;;;27.30;45.90;;;;;;4997205;28;20045;-69
2022/09/05 09:42:01;;;;;;;5.25;4.75;;;27.40;45.50;;;;;;4998739;28;20058;-69
2022/09/05 09:44:47;;;;;;;6.53;5.75;;;27.50;45.50;;;;;;4981147;28;20125;-68
2022/09/05 09:47:19;;;;;;;5.75;4.25;;;27.60;45.20;;;;;;4998916;28;20393;-69
2022/09/05 09:49:46;;;;;;;;;;;27.70;45.20;;;;;;4998112;28;20081;-69
2022/09/05 09:52:35;;;;;;;5.03;4.07;;;27.80;45.60;;;;;;5002497;28;19965;-69
2022/09/05 09:55:46;;;;;;;6.20;3.63;;;28.00;45.40;;;;;;4981945;28;20050;-69
2022/09/05 09:58:35;;;;;;;6.22;4.70;;;28.10;45.20;;;;;;4977614;28;20125;-68
2022/09/05 10:01:07;;;;;;;6.32;3.65;;;28.20;44.30;;;;;;4989637;28;20049;-69
2022/09/05 10:04:12;;;;;;;3.92;3.30;;;28.30;44.00;;;;;;4999457;28;20049;-68
2022/09/05 10:06:48;;;;;;;4.07;3.67;;;28.50;44.00;;;;;;4987938;28;20046;-69
2022/09/05 10:09:38;;;;;;;5.22;3.55;;;28.50;43.30;;;;;;4999549;28;20046;-69
2022/09/05 10:12:32;;;;;;;5.30;3.00;;;28.60;43.30;;;;;;4995969;28;20042;-68
2022/09/05 10:15:29;;;;;;;5.88;4.07;;;28.70;42.80;;;;;;5003594;28;20180;-68
2022/09/05 10:18:19;;;;;;;4.68;3.42;;;28.70;42.50;;;;;;4985685;28;20070;-69
2022/09/05 10:21:23;;;;;;;5.05;3.33;;;28.80;42.60;;;;;;4986474;28;20049;-69
2022/09/05 10:24:18;;;;;;;;;;;28.80;41.90;;;;;;4970110;28;20121;-66
2022/09/05 10:27:01;;;;;;;4.68;2.60;;;28.70;42.10;;;;;;4995951;28;19917;-67
2022/09/05 10:29:44;;;;;;;4.50;2.80;;;28.70;42.40;;;;;;4982631;28;20356;-67
2022/09/05 10:32:23;;;;;;;2.75;2.10;;;28.80;41.90;;;;;;4995905;28;20430;-67
2022/09/05 10:35:04;;;;;;;3.20;2.30;;;28.90;41.70;;;;;;4989843;28;20531;-68
2022/09/05 10:37:47;;;;;;;2.60;2.00;;;29.00;41.50;;;;;;4998898;28;20038;-67
2022/09/05 10:40:21;;;;;;;3.00;1.77;;;29.10;41.50;;;;;;5006493;28;20501;-67
2022/09/05 10:42:50;;;;;;;2.97;1.85;;;29.10;40.80;;;;;;5006798;28;20533;-68
2022/09/05 10:45:36;;;;;;;3.38;2.50;;;29.20;40.00;;;;;;5001242;28;20042;-67
2022/09/05 10:48:26;;;;;;;5.45;2.20;;;29.20;40.10;;;;;;5006768;28;20038;-67
2022/09/05 10:51:02;;;;;;;4.35;2.00;;;29.30;40.30;;;;;;4987394;28;20413;-67
2022/09/05 10:53:27;;;;;;;3.03;1.90;;;29.30;39.70;;;;;;4996159;28;20038;-66
2022/09/05 10:56:05;;;;;;;4.55;2.83;;;29.30;39.70;;;;;;4996009;28;20035;-66
2022/09/05 10:58:58;;;;;;;5.45;2.28;;;29.30;39.70;;;;;;4982032;28;20026;-67
2022/09/05 11:01:24;;;;;;;3.30;2.15;;;29.40;40.30;;;;;;4995205;28;20516;-67
2022/09/05 11:04:23;;;;;;;3.00;2.20;;;29.50;40.10;;;;;;4997577;28;20046;-67
2022/09/05 11:06:52;;;;;;;5.40;2.45;;;29.60;40.10;;;;;;4981806;28;20121;-66
2022/09/05 11:09:55;;;;;;;3.40;2.40;;;29.60;39.80;;;;;;4996198;28;20042;-66
2022/09/05 11:12:38;;;;;;;4.72;2.33;;;29.60;39.40;;;;;;5006393;28;20074;-66
2022/09/05 11:15:25;;;;;;;3.30;2.17;;;29.70;39.20;;;;;;5003353;28;20501;-66
2022/09/05 11:18:02;;;;;;;4.90;2.53;;;29.60;39.30;;;;;;5006844;28;20509;-66
2022/09/05 11:20:54;;;;;;;4.15;2.70;;;29.60;39.10;;;;;;4977488;28;20050;-66
2022/09/05 11:23:43;;;;;;;4.35;2.42;;;29.70;39.20;;;;;;4993765;28;20037;-66
2022/09/05 11:26:29;;;;;;;3.05;2.25;;;29.60;39.10;;;;;;5008108;28;20545;-66
2022/09/05 11:29:18;;;;;;;6.05;2.63;;;29.60;39.10;;;;;;5004314;28;20050;-66
2022/09/05 11:32:22;;;;;;;4.10;2.90;;;29.70;39.00;;;;;;4999468;28;20061;-66
2022/09/05 11:34:56;;;;;;;4.95;2.45;;;29.70;38.70;;;;;;4988874;28;20041;-66
2022/09/05 11:37:46;;;;;;;4.93;2.60;;;29.70;39.10;;;;;;4997519;28;20050;-66
2022/09/05 11:40:37;;;;;;;3.28;2.20;;;29.80;38.90;;;;;;5008264;28;20045;-66
2022/09/05 11:43:40;;;;;;;5.03;2.20;;;29.80;38.60;;;;;;5003942;28;20053;-66
2022/09/05 11:46:24;;;;;;;3.35;2.42;;;29.80;38.20;;;;;;4999992;28;20120;-66
2022/09/05 11:48:55;;;;;;;3.33;2.38;;;29.90;38.90;;;;;;5008691;28;20525;-67
2022/09/05 11:51:30;;;;;;;5.60;2.05;;;29.90;39.20;;;;;;4995400;28;20050;-67
2022/09/05 11:54:11;;;;;;;4.35;2.25;;;30.00;37.90;;;;;;4999931;28;20049;-67
2022/09/05 11:56:48;;;;;;;4.72;2.40;;;30.00;37.60;;;;;;4985517;28;20081;-66
2022/09/05 11:59:19;;;;;;;3.80;1.85;;;30.00;37.20;;;;;;5004703;28;20121;-66
2022/09/05 12:02:05;;;;;;;3.13;1.70;;;30.00;37.70;;;;;;4989692;28;20561;-66
2022/09/05 12:04:49;;;;;;;6.93;2.65;;;30.00;38.10;;;;;;4991772;28;20497;-66
2022/09/05 12:07:33;;;;;;;3.58;1.98;;;30.10;38.20;;;;;;5004969;28;20049;-66
2022/09/05 12:10:28;;;;;;;2.65;1.90;;;30.20;37.90;;;;;;4994356;28;20053;-66
2022/09/05 12:13:08;;;;;;;2.92;1.90;;;30.20;37.20;;;;;;4977329;28;20057;-66
2022/09/05 12:15:36;;;;;;;3.25;2.00;;;30.30;38.00;;;;;;5003410;28;20426;-66
2022/09/05 12:18:27;;;;;;;5.03;2.05;;;30.30;37.50;;;;;;4999166;28;20076;-66
2022/09/05 12:21:05;;;;;;;4.82;2.33;;;30.40;37.40;;;;;;5008702;28;20136;-66
2022/09/05 12:23:45;;;;;;;5.60;2.33;;;30.30;37.10;;;;;;4996440;28;20085;-66
2022/09/05 12:26:36;;;;;;;5.68;2.30;;;30.10;37.10;;;;;;5008794;28;20045;-66
2022/09/05 12:29:32;;;;;;;3.58;1.77;;;30.00;37.30;;;;;;5003253;28;20484;-66
2022/09/05 12:31:59;;;;;;;2.60;1.70;;;30.00;37.90;;;;;;4992543;28;20051;-66
2022/09/05 12:34:39;;;;;;;3.95;1.90;;;30.00;37.70;;;;;;4991222;28;20045;-66
2022/09/05 12:37:11;;;;;;;3.42;1.98;;;30.00;37.50;;;;;;4992571;28;20057;-66
2022/09/05 12:39:46;;;;;;;4.38;2.28;;;29.90;37.60;;;;;;5002528;28;20045;-66
2022/09/05 12:42:31;;;;;;;2.22;1.77;;;29.90;37.30;;;;;;5001874;28;20126;-66
2022/09/05 12:45:08;;;;;;;1.90;1.55;;;29.90;37.50;;;;;;5006473;28;20042;-67
2022/09/05 12:48:00;;;;;;;4.10;1.85;;;29.90;37.50;;;;;;5007152;28;20060;-66
2022/09/05 12:50:47;;;;;;;3.30;1.45;;;29.90;38.10;;;;;;4984489;28;20041;-67
2022/09/05 12:53:19;;;;;;;4.45;1.65;;;30.00;38.00;;;;;;5001280;28;20109;-67
2022/09/05 12:55:57;;;;;;;2.65;1.60;;;30.00;37.80;;;;;;4991300;28;20077;-67
2022/09/05 12:58:34;;;;;;;2.70;1.33;;;30.00;37.70;;;;;;4991964;28;20026;-66
2022/09/05 13:01:12;;;;;;;4.07;1.83;;;30.00;37.60;;;;;;4990503;28;20049;-66
2022/09/05 13:03:54;;;;;;;2.30;1.40;;;30.10;37.20;;;;;;4987780;28;20128;-67
2022/09/05 13:06:29;;;;;;;3.30;1.80;;;30.20;37.00;;;;;;4990372;28;20042;-66
2022/09/05 13:09:25;;;;;;;4.63;1.60;;;30.20;37.00;;;;;;4993005;28;20132;-66
2022/09/05 13:12:08;;;;;;;2.03;1.40;;;30.30;36.80;;;;;;4988952;28;20525;-69
2022/09/05 13:14:58;;;;;;;2.22;1.63;;;30.30;36.90;;;;;;5006357;28;20038;-68
2022/09/05 13:17:37;;;;;;;3.13;1.63;;;30.30;37.10;;;;;;4989028;28;20513;-69
2022/09/05 13:20:34;;;;;;;3.35;1.58;;;30.30;37.00;;;;;;4990272;28;20371;-70
2022/09/05 13:23:20;;;;;;;2.28;1.50;;;30.40;37.10;;;;;;4981147;28;20054;-69
2022/09/05 13:25:57;;;;;;;1.58;1.30;;;30.50;37.30;;;;;;4991340;28;20070;-67
2022/09/05 13:29:00;;;;;;;3.33;1.58;;;30.60;37.00;;;;;;4991241;28;20125;-68
2022/09/05 13:31:41;;;;;;;1.90;1.45;;;30.60;36.50;;;;;;4990081;28;20050;-69
2022/09/05 13:34:15;;;;;;;2.78;1.60;;;30.70;36.50;;;;;;4989185;28;20042;-67
2022/09/05 13:36:55;;;;;;;5.00;1.70;;;30.80;36.40;;;;;;4987811;28;20042;-67
2022/09/05 13:39:27;;;;;;;1.95;1.73;;;30.80;36.20;;;;;;4989164;28;20057;-68
2022/09/05 13:42:00;;;;;;;3.17;1.55;;;30.90;35.90;;;;;;4990667;28;20076;-68
2022/09/05 13:44:26;;;;;;;;;;;30.90;36.10;;;;;;4988664;28;20109;-69
2022/09/05 13:46:58;;;;;;;3.67;1.80;;;30.90;36.40;;;;;;4989587;28;19917;-69
2022/09/05 13:49:26;;;;;;;3.88;1.70;;;31.00;36.50;;;;;;4972519;28;20054;-69
2022/09/05 13:52:20;;;;;;;3.55;1.80;;;31.00;36.40;;;;;;4987979;28;20038;-67
2022/09/05 13:54:54;;;;;;;2.65;1.70;;;31.10;36.60;;;;;;4988156;28;20038;-68
2022/09/05 13:57:41;;;;;;;;;;;31.20;36.10;;;;;;4990180;28;20038;-67
2022/09/05 14:00:17;;;;;;;2.40;1.70;;;31.10;36.70;;;;;;4989453;28;19925;-67
2022/09/05 14:03:04;;;;;;;4.13;1.92;;;31.20;36.30;;;;;;4988443;28;20047;-67
2022/09/05 14:05:43;;;;;;;2.75;1.65;;;31.20;35.70;;;;;;4987234;28;20065;-67
2022/09/05 14:08:33;;;;;;;2.40;1.80;;;31.20;35.80;;;;;;4988934;28;20057;-67